Domov               UVHVVR             MKGP            O straneh              
ZDRAVSTVENO VARSTVO RASTLIN
  MREŽA AGROMET. POSTAJ
 ► PROGNOSTIČNA OBVESTILA
AGROMETEOROLOŠKI PODATKI -
ARSO
OBVLADOVANJE TVEGANJ ZARADI
NEUGODNIH VREMENSKIH RAZMER
  ► NARAVNE NESREČE
  ► SUŠA/MOČA
  ► NAMAKANJE
  ► ŽLED (gozdarstvo)
KARTOGRAFSKI PRIKAZI
SPLETNE POVEZAVE
PROJEKTI IN PUBLIKACIJE

AGROMETEOROLOŠKA MREŽA: VREMENSKE POSTAJE IN FENOLOŠKA OPAZOVANJA

Pregled podatkov za lokacijo Pesnica, meteorološka postaja 25158

Pregled senzorjev na lokaciji

ID Ime Zadnja
vrednost
Datum
zadnje
spremembe
Tip
senzorja
913 Omočenost lista (U) 5 U 16.7.2018 00:30 A730WET
916 Padavine (mm) 0 mm 16.7.2018 00:30 Generic 0.2 mm
915 Relativna vlaga 2 m (% RH) 90,99 % RH 16.7.2018 00:30 Generic 0 - 100 %
914 Temperatura 2 m (°C) 15,58 °C 16.7.2018 00:30 Generic -40 - +60 °C
3981 Hitrost vetra (km/h) 0 km/h 16.7.2018 00:30 Generic 200 km/h

Pregled podatkov zadnjih 24 ur

Zap.
št.
Datum in čas Pesnica
Omočenost
lista
Padavine Relativna
vlaga
2
m
Temperatura
2
m
Hitrost
vetra
1 16.7.2018 00:30
2 16.7.2018 00:00
3 15.7.2018 23:30 5 0 91 15,6 0
4 15.7.2018 23:00 3 0 87,4 16,1 0
5 15.7.2018 22:30 2 0 84,6 16,8 0
6 15.7.2018 22:00 0 0 78,5 18,3 1,2
7 15.7.2018 21:30 1 0 73,1 18,5 0,9
8 15.7.2018 21:00 1 0 77,4 18,4 0
9 15.7.2018 20:30 0 0 78,9 19,2 0,1
10 15.7.2018 20:00 0 0 72 20,5 2,6
11 15.7.2018 19:30 0 0 71,9 21,6 1,1
12 15.7.2018 19:00 0 0 69,7 22,5 0,1
13 15.7.2018 18:30 0 0 71,1 22,8 0,4
14 15.7.2018 18:00 0 0 63,9 23,9 0,6
15 15.7.2018 17:30 0 0 59,3 24,4 1
16 15.7.2018 17:00 0 0 62,1 22,9 0,1
17 15.7.2018 16:30 0 0 63,6 23,3 0,4
18 15.7.2018 16:00 0 0 63,4 23,3 0,2
19 15.7.2018 15:30 0 0 63,8 23,4 0,9
20 15.7.2018 15:00 0 0 60,5 24,4 1,6
21 15.7.2018 14:30 0 0 54,8 24,5 2,1
22 15.7.2018 14:00 0 0 58,7 23,7 1,9
23 15.7.2018 13:30 0 0 56,7 24,6 2,2
24 15.7.2018 13:00 0 0 51,8 24,6 2,9
25 15.7.2018 12:30 0 0 54,7 24,3 2,9
26 15.7.2018 12:00 0 0 55,4 23,3 2,9
27 15.7.2018 11:30 0 0 62,3 23,5 2,2
28 15.7.2018 11:00 0 0 61,1 24,2 0,4
29 15.7.2018 10:30 0 0 56,6 24,3 0,4
30 15.7.2018 10:00 0 0 60,7 23,1 1,4
31 15.7.2018 09:30 0 0 66,1 22,7 1,7
32 15.7.2018 09:00 0 0 73,2 22,2 1,5
33 15.7.2018 08:30 0 0 76,7 21,3 1,5
34 15.7.2018 08:00 0 0 78,9 20,4 0,7
35 15.7.2018 07:30 1 0 80,3 19,3 0,7
36 15.7.2018 07:00 1 0 86,4 18,1 0,3
37 15.7.2018 06:30 2 0 87,6 17,2 0,4
38 15.7.2018 06:00 10 0 91,7 16,2 0
39 15.7.2018 05:30 10 0 91,7 16 0
40 15.7.2018 05:00 9 0 89,5 15,8 0,8
41 15.7.2018 04:30 9 0 92,5 15,6 0,2
42 15.7.2018 04:00 9 0 93,3 15,6 0,2
43 15.7.2018 03:30 9 0 94,2 15,7 0
44 15.7.2018 03:00 9 0 94,9 15,8 0
45 15.7.2018 02:30 9 0,2 94,7 15,8 0
46 15.7.2018 02:00 9 0 94 16 0,1
47 15.7.2018 01:30 9 0 94,5 16 1,1
48 15.7.2018 01:00 9 0 95,5 15,8 0
© 2011 Ministrstvo za kmetijstvo, gozdarstvo in prehrano. Vse pravice pridržane.